Time;durP1;ratioP1;P1;durP2;ratioP2;P2;SDS_P1;SDS_P2;PMS_P1;PMS_P2;Temp;Humidity;BMP_temperature;BMP_pressure;BME280_temperature;BME280_humidity;BME280_pressure;Samples;Min_cycle;Max_cycle;Signal;HPM_P1;HPM_P2
2021/08/14 00:01:09;;;;;;;25.67;22.07;;;;;;;20.66;64.88;100699.20;128552;1094;22340;-78
2021/08/14 00:03:38;;;;;;;24.13;20.95;;;;;;;20.66;64.89;100704.56;128253;1095;24224;-78
2021/08/14 00:06:08;;;;;;;21.58;19.38;;;;;;;20.65;65.06;100702.91;128539;1094;22343;-78
2021/08/14 00:08:38;;;;;;;23.68;20.38;;;;;;;20.64;64.98;100695.91;128228;1095;22347;-78
2021/08/14 00:11:08;;;;;;;23.98;21.35;;;;;;;20.65;64.89;100699.41;128569;1095;22340;-78
2021/08/14 00:13:37;;;;;;;24.40;20.60;;;;;;;20.64;64.73;100695.09;128516;1095;22830;-77
2021/08/14 00:16:07;;;;;;;25.38;21.60;;;;;;;20.63;65.06;100694.27;128463;1095;22444;-79
2021/08/14 00:18:37;;;;;;;26.35;20.98;;;;;;;20.64;65.02;100690.53;128588;1094;22827;-79
2021/08/14 00:21:07;;;;;;;22.83;20.10;;;;;;;20.67;64.96;100700.01;128289;1095;22359;-79
2021/08/14 00:23:37;;;;;;;25.60;20.78;;;;;;;20.69;64.88;100689.84;128266;1095;22343;-79
2021/08/14 00:26:06;;;;;;;26.15;21.15;;;;;;;20.71;64.99;100695.82;128286;1095;22360;-79
2021/08/14 00:28:37;;;;;;;23.55;21.15;;;;;;;20.72;64.56;100696.63;128358;1095;25014;-79
2021/08/14 00:31:07;;;;;;;23.75;21.15;;;;;;;20.72;64.66;100704.69;128569;1095;24464;-79
2021/08/14 00:33:36;;;;;;;26.45;20.08;;;;;;;20.72;64.66;100696.63;128215;1098;22356;-79
2021/08/14 00:36:06;;;;;;;24.30;21.98;;;;;;;20.69;64.37;100697.90;128161;1098;22347;-79
2021/08/14 00:38:36;;;;;;;24.05;21.65;;;;;;;20.65;64.68;100694.84;128192;1098;22555;-79
2021/08/14 00:41:06;;;;;;;25.13;22.48;;;;;;;20.63;64.86;100688.09;128169;1098;22369;-78
2021/08/14 00:43:36;;;;;;;24.60;22.30;;;;;;;20.60;65.22;100694.72;127961;1098;22379;-79
2021/08/14 00:46:06;;;;;;;23.73;21.48;;;;;;;20.59;64.79;100690.41;128192;1098;22357;-78
2021/08/14 00:48:36;;;;;;;23.25;21.08;;;;;;;20.53;65.24;100691.30;128252;1098;22367;-78
2021/08/14 00:51:08;;;;;;;24.48;21.50;;;;;;;20.52;65.25;100686.14;128213;1095;24252;-77
2021/08/14 00:53:37;;;;;;;23.35;20.88;;;;;;;20.53;65.42;100691.30;128324;1095;22355;-78
2021/08/14 00:56:07;;;;;;;23.98;20.70;;;;;;;20.57;65.70;100688.98;128425;1095;22359;-78
2021/08/14 00:58:38;;;;;;;21.70;19.60;;;;;;;20.57;64.81;100688.98;128617;1095;22359;-78
2021/08/14 01:01:08;;;;;;;21.73;19.40;;;;;;;20.58;65.46;100691.44;128324;1095;22348;-79
2021/08/14 01:03:38;;;;;;;24.48;20.88;;;;;;;20.60;65.36;100681.30;128272;1095;23303;-80
2021/08/14 01:06:07;;;;;;;28.35;23.02;;;;;;;20.59;65.03;100684.20;128581;1095;23138;-79
2021/08/14 01:08:37;;;;;;;25.90;22.20;;;;;;;20.54;65.21;100684.88;128607;1094;24230;-79
2021/08/14 01:11:06;;;;;;;23.10;20.85;;;;;;;20.47;65.54;100678.75;128590;1095;22365;-78
2021/08/14 01:13:36;;;;;;;25.13;22.45;;;;;;;20.45;65.66;100675.46;128586;1095;22340;-80
2021/08/14 01:16:09;;;;;;;26.25;22.83;;;;;;;20.43;65.72;100674.88;128605;1095;24498;-79
2021/08/14 01:18:44;;;;;;;24.13;21.80;;;;;;;20.38;65.84;100672.86;128612;1093;24236;-79
2021/08/14 01:21:20;;;;;;;25.30;22.68;;;;;;;20.35;65.77;100675.17;128275;1095;22385;-78
2021/08/14 01:23:53;;;;;;;24.50;22.00;;;;;;;20.33;66.04;100672.73;128300;1095;22350;-78
2021/08/14 01:26:24;;;;;;;25.23;22.75;;;;;;;20.32;66.39;100675.61;128350;1095;22375;-78
2021/08/14 01:28:54;;;;;;;23.43;21.08;;;;;;;20.31;66.31;100668.62;128370;1093;23123;-78
2021/08/14 01:31:24;;;;;;;24.05;21.90;;;;;;;20.30;66.29;100665.13;128585;1095;22347;-78
2021/08/14 01:33:55;;;;;;;22.78;20.38;;;;;;;20.24;66.49;100665.20;128283;1095;22363;-79
2021/08/14 01:36:25;;;;;;;23.63;21.30;;;;;;;20.21;66.51;100661.09;128681;1093;22343;-79
2021/08/14 01:38:58;;;;;;;24.38;21.75;;;;;;;20.21;66.39;100661.09;128300;1095;22353;-79
2021/08/14 01:41:29;;;;;;;25.10;22.50;;;;;;;20.20;66.75;100668.33;128651;1095;22345;-77
2021/08/14 01:44:07;;;;;;;24.03;21.60;;;;;;;20.17;66.42;100671.45;128310;1095;22670;-78
2021/08/14 01:46:41;;;;;;;25.30;22.68;;;;;;;20.09;66.55;100668.23;128612;1094;22602;-78
2021/08/14 01:49:11;;;;;;;27.40;21.70;;;;;;;20.03;67.04;100669.96;128525;1095;22344;-78
2021/08/14 01:51:40;;;;;;;25.23;22.73;;;;;;;19.98;67.09;100667.11;128325;1095;24203;-78
2021/08/14 01:54:10;;;;;;;26.53;23.95;;;;;;;19.88;66.90;100677.53;128326;1095;22365;-76
2021/08/14 01:56:40;;;;;;;23.15;20.68;;;;;;;19.77;67.34;100680.94;128326;1095;22691;-78
2021/08/14 01:59:10;;;;;;;24.40;22.20;;;;;;;19.66;67.66;100680.63;128285;1095;22359;-78
2021/08/14 02:01:40;;;;;;;23.63;21.37;;;;;;;19.60;67.95;100684.14;128361;1095;22775;-78
2021/08/14 02:04:10;;;;;;;23.55;21.08;;;;;;;19.55;68.39;100681.28;128334;1095;24485;-77
2021/08/14 02:06:40;;;;;;;23.45;21.35;;;;;;;19.51;68.64;100666.69;128302;1095;22348;-79
2021/08/14 02:09:10;;;;;;;24.57;21.63;;;;;;;19.53;68.61;100669.98;128305;1095;22347;-78
2021/08/14 02:11:39;;;;;;;24.75;22.23;;;;;;;19.51;68.43;100670.19;128296;1095;22349;-78
2021/08/14 02:14:09;;;;;;;24.03;21.53;;;;;;;19.49;68.58;100666.08;128353;1095;24486;-77
2021/08/14 02:16:39;;;;;;;22.18;20.08;;;;;;;19.45;68.82;100664.88;128342;1095;22353;-78
2021/08/14 02:19:09;;;;;;;25.28;22.48;;;;;;;19.42;68.80;100663.45;128315;1095;24234;-79
2021/08/14 02:21:38;;;;;;;24.00;21.68;;;;;;;19.42;69.20;100662.64;128333;1095;24485;-79
2021/08/14 02:24:08;;;;;;;24.38;21.98;;;;;;;19.42;69.02;100660.77;128294;1095;22362;-80
2021/08/14 02:26:37;;;;;;;27.03;24.23;;;;;;;19.46;69.36;100667.36;128321;1094;25008;-79
2021/08/14 02:29:07;;;;;;;25.38;22.08;;;;;;;19.50;69.13;100662.38;128276;1095;22342;-79
2021/08/14 02:31:36;;;;;;;25.30;22.60;;;;;;;19.49;69.29;100666.08;128352;1095;22350;-79
2021/08/14 02:34:06;;;;;;;24.35;21.73;;;;;;;19.46;68.82;100666.52;128652;1095;22389;-79
2021/08/14 02:36:35;;;;;;;24.93;22.00;;;;;;;19.41;69.18;100661.82;128648;1095;22344;-78
2021/08/14 02:39:05;;;;;;;23.53;21.30;;;;;;;19.41;69.42;100658.33;128312;1095;25732;-78
2021/08/14 02:41:34;;;;;;;23.55;21.13;;;;;;;19.40;69.47;100654.83;128591;1095;24041;-78
2021/08/14 02:44:04;;;;;;;25.68;21.90;;;;;;;19.41;69.23;100661.01;128589;1095;23288;-79
2021/08/14 02:46:34;;;;;;;24.90;22.50;;;;;;;19.38;68.92;100666.80;128345;1095;22328;-79
2021/08/14 02:49:04;;;;;;;22.30;20.00;;;;;;;19.26;69.33;100659.48;128288;1095;22374;-79
2021/08/14 02:51:34;;;;;;;24.13;21.60;;;;;;;19.18;69.67;100665.08;128285;1095;22330;-79
2021/08/14 02:54:03;;;;;;;22.80;20.70;;;;;;;19.11;69.62;100660.81;128316;1094;22347;-79
2021/08/14 02:56:33;;;;;;;23.98;21.20;;;;;;;19.05;69.97;100674.02;128639;1093;22345;-79
2021/08/14 02:59:02;;;;;;;21.75;19.40;;;;;;;19.06;70.47;100666.83;128334;1095;22354;-79
2021/08/14 03:01:32;;;;;;;24.88;22.40;;;;;;;19.09;70.61;100669.05;128321;1095;22379;-79
2021/08/14 03:04:01;;;;;;;25.88;22.18;;;;;;;19.12;70.21;100675.84;128346;1095;22783;-79
2021/08/14 03:06:31;;;;;;;24.53;22.03;;;;;;;19.13;70.46;100682.86;128358;1095;22339;-78
2021/08/14 03:09:00;;;;;;;24.25;21.95;;;;;;;19.13;70.46;100680.17;128369;1095;22377;-78
2021/08/14 03:11:30;;;;;;;23.28;20.80;;;;;;;19.12;70.38;100686.55;128310;1095;22349;-79
2021/08/14 03:13:59;;;;;;;22.88;20.48;;;;;;;19.15;70.39;100686.12;128622;1095;22345;-79
2021/08/14 03:16:30;;;;;;;22.18;20.13;;;;;;;19.17;70.49;100687.55;128346;1095;22355;-78
2021/08/14 03:19:00;;;;;;;23.58;21.40;;;;;;;19.17;70.58;100684.88;128323;1095;22352;-78
2021/08/14 03:21:29;;;;;;;22.35;20.38;;;;;;;19.17;70.57;100682.19;128319;1095;22373;-78
2021/08/14 03:23:59;;;;;;;21.93;19.93;;;;;;;19.18;70.48;100680.33;128312;1095;22393;-78
2021/08/14 03:26:28;;;;;;;23.40;21.20;;;;;;;19.20;70.72;100686.30;128281;1095;24252;-78
2021/08/14 03:28:58;;;;;;;24.05;21.58;;;;;;;19.21;70.30;100679.91;128263;1095;22355;-79
2021/08/14 03:31:27;;;;;;;22.93;20.63;;;;;;;19.21;70.60;100680.72;128321;1095;22355;-79
2021/08/14 03:33:58;;;;;;;23.25;20.95;;;;;;;19.22;70.81;100674.31;128621;1094;22363;-79
2021/08/14 03:36:28;;;;;;;22.15;20.00;;;;;;;19.23;70.34;100677.84;128343;1095;22367;-77
2021/08/14 03:38:57;;;;;;;21.15;18.93;;;;;;;19.24;70.37;100684.83;128328;1095;22343;-78
2021/08/14 03:41:27;;;;;;;21.40;19.20;;;;;;;19.25;70.27;100681.92;128315;1095;22329;-79
2021/08/14 03:43:56;;;;;;;21.98;19.90;;;;;;;19.27;70.52;100689.75;128579;1095;22344;-79
2021/08/14 03:46:26;;;;;;;22.50;20.20;;;;;;;19.30;70.47;100689.33;128312;1095;22372;-79
2021/08/14 03:48:56;;;;;;;22.15;19.58;;;;;;;19.32;70.76;100687.23;128625;1095;22356;-79
2021/08/14 03:51:25;;;;;;;21.05;19.15;;;;;;;19.34;70.65;100695.88;128637;1095;22363;-79
2021/08/14 03:53:55;;;;;;;23.30;21.10;;;;;;;19.37;70.57;100690.09;128439;1095;22398;-79
2021/08/14 03:56:25;;;;;;;21.33;19.33;;;;;;;19.39;70.62;100687.18;128628;1095;22613;-78
2021/08/14 03:58:54;;;;;;;21.70;19.58;;;;;;;19.43;70.56;100683.88;128647;1095;22368;-79
2021/08/14 04:01:24;;;;;;;21.67;19.43;;;;;;;19.46;70.50;100687.95;128630;1095;22350;-78
2021/08/14 04:03:54;;;;;;;23.40;20.33;;;;;;;19.48;70.56;100675.16;128661;1095;22348;-79
2021/08/14 04:06:23;;;;;;;23.68;21.25;;;;;;;19.52;70.23;100679.86;128594;1095;22364;-79
2021/08/14 04:08:53;;;;;;;24.38;21.30;;;;;;;19.55;70.16;100681.28;128337;1095;22358;-79
2021/08/14 04:11:22;;;;;;;22.67;18.83;;;;;;;19.58;70.38;100680.85;128613;1095;22801;-78
2021/08/14 04:13:51;;;;;;;24.20;19.93;;;;;;;19.60;70.29;100684.14;128636;1095;24153;-79
2021/08/14 04:16:21;;;;;;;24.15;21.55;;;;;;;19.62;70.17;100674.00;128637;1095;22368;-79
2021/08/14 04:18:50;;;;;;;23.05;20.70;;;;;;;19.64;69.88;100680.02;128584;1095;22359;-79
2021/08/14 04:21:20;;;;;;;23.75;21.38;;;;;;;19.64;70.16;100674.65;128584;1095;22357;-79
2021/08/14 04:23:49;;;;;;;20.85;18.93;;;;;;;19.64;69.85;100674.65;128649;1095;24794;-80
2021/08/14 04:26:19;;;;;;;20.70;18.48;;;;;;;19.64;69.65;100669.30;128600;1095;22341;-78
2021/08/14 04:28:48;;;;;;;21.00;19.10;;;;;;;19.66;70.00;100664.55;128694;1093;22367;-78
2021/08/14 04:31:18;;;;;;;20.98;18.83;;;;;;;19.68;69.71;100670.48;128620;1095;24246;-78
2021/08/14 04:33:47;;;;;;;21.75;19.53;;;;;;;19.71;70.01;100680.77;128688;1095;24243;-78
2021/08/14 04:36:17;;;;;;;22.53;19.83;;;;;;;19.75;69.61;100686.51;128631;1093;24346;-78
2021/08/14 04:38:48;;;;;;;19.98;18.08;;;;;;;19.78;69.45;100693.30;128326;1093;24505;-78
2021/08/14 04:41:17;;;;;;;22.80;20.43;;;;;;;19.81;69.48;100692.86;128549;1095;22349;-80
2021/08/14 04:43:47;;;;;;;23.08;19.70;;;;;;;19.83;69.29;100696.16;128651;1095;22352;-78
2021/08/14 04:46:16;;;;;;;21.45;19.23;;;;;;;19.88;69.21;100701.66;128685;1093;24515;-79
2021/08/14 04:48:46;;;;;;;19.85;17.83;;;;;;;19.93;69.48;100693.79;128598;1095;22357;-78
2021/08/14 04:51:15;;;;;;;20.70;18.58;;;;;;;20.03;69.26;100706.69;128602;1095;24969;-79
2021/08/14 04:53:45;;;;;;;18.98;16.95;;;;;;;20.10;69.02;100697.53;128610;1095;22373;-79
2021/08/14 04:56:14;;;;;;;20.20;18.23;;;;;;;20.19;68.76;100706.08;128622;1095;23309;-78
2021/08/14 04:58:44;;;;;;;21.20;18.90;;;;;;;20.28;69.09;100711.98;128617;1095;22353;-78
2021/08/14 05:01:16;;;;;;;20.58;18.53;;;;;;;20.39;68.62;100703.19;128643;1095;24510;-78
2021/08/14 05:03:46;;;;;;;20.85;18.35;;;;;;;20.49;68.47;100699.98;128239;1098;24505;-77
2021/08/14 05:06:16;;;;;;;20.83;17.60;;;;;;;20.59;67.89;100709.20;128229;1096;22366;-77
2021/08/14 05:08:45;;;;;;;20.20;18.10;;;;;;;20.70;68.24;100699.56;128246;1098;22351;-78
2021/08/14 05:11:15;;;;;;;21.90;17.93;;;;;;;20.80;67.69;100699.84;128214;1098;22343;-78
2021/08/14 05:13:44;;;;;;;29.08;18.15;;;;;;;20.90;67.84;100705.48;128209;1098;22369;-78
2021/08/14 05:16:13;;;;;;;22.85;17.03;;;;;;;21.00;67.42;100709.50;128235;1098;22359;-78
2021/08/14 05:18:43;;;;;;;19.50;17.35;;;;;;;21.10;67.20;100707.89;128217;1098;25018;-78
2021/08/14 05:21:13;;;;;;;18.10;16.08;;;;;;;21.24;66.58;100713.89;128292;1096;23290;-78
2021/08/14 05:23:42;;;;;;;18.75;16.70;;;;;;;21.33;66.56;100720.58;128592;1093;22351;-78
2021/08/14 05:26:12;;;;;;;20.03;17.83;;;;;;;21.45;66.52;100728.69;128455;1095;22350;-78
2021/08/14 05:28:41;;;;;;;18.63;16.73;;;;;;;21.54;65.97;100721.13;128279;1095;22331;-78
2021/08/14 05:31:11;;;;;;;16.50;14.85;;;;;;;21.64;65.83;100732.13;128626;1095;22472;-79
2021/08/14 05:33:40;;;;;;;18.10;14.35;;;;;;;21.82;65.36;100733.89;128610;1095;22350;-80
2021/08/14 05:36:10;;;;;;;16.13;14.38;;;;;;;22.00;64.39;100731.10;128687;1095;22350;-79
2021/08/14 05:38:39;;;;;;;15.73;13.95;;;;;;;22.18;63.95;100724.80;128639;1095;24193;-79
2021/08/14 05:41:09;;;;;;;18.33;14.40;;;;;;;22.34;62.91;100730.53;128326;1095;22327;-78
2021/08/14 05:43:39;;;;;;;15.60;14.00;;;;;;;22.46;62.40;100724.07;128696;1094;24246;-78
2021/08/14 05:46:09;;;;;;;16.73;15.23;;;;;;;22.57;61.66;100725.09;128656;1095;22357;-78
2021/08/14 05:48:39;;;;;;;15.43;13.95;;;;;;;22.68;61.48;100731.50;128502;1095;22369;-78
2021/08/14 05:51:12;;;;;;;15.70;14.08;;;;;;;22.75;61.17;100734.87;128660;1095;24492;-79
2021/08/14 05:53:45;;;;;;;15.50;14.10;;;;;;;22.85;60.66;100737.77;128700;1095;22353;-80
2021/08/14 05:56:15;;;;;;;16.20;14.65;;;;;;;22.94;60.36;100741.75;128641;1095;23871;-80
2021/08/14 05:58:44;;;;;;;16.20;14.23;;;;;;;23.14;60.58;100738.63;128658;1095;22349;-79
2021/08/14 06:01:14;;;;;;;15.40;13.58;;;;;;;23.47;59.85;100739.74;128382;1093;22392;-80
2021/08/14 06:03:45;;;;;;;15.50;13.88;;;;;;;23.74;59.12;100731.05;128739;1095;24262;-79
2021/08/14 06:06:15;;;;;;;14.93;13.63;;;;;;;24.09;58.90;100738.84;128490;1095;25135;-79
2021/08/14 06:08:45;;;;;;;14.95;13.48;;;;;;;24.51;57.76;100743.77;128800;1095;22347;-79
2021/08/14 06:11:14;;;;;;;15.60;13.85;;;;;;;24.89;56.30;100741.00;128690;1095;22355;-79
2021/08/14 06:13:44;;;;;;;16.10;14.40;;;;;;;25.25;55.51;100738.68;128700;1095;22382;-79
2021/08/14 06:16:15;;;;;;;21.38;13.63;;;;;;;25.67;54.46;100748.80;128471;1095;24516;-78
2021/08/14 06:18:47;;;;;;;16.48;14.98;;;;;;;25.96;53.16;100740.39;128873;1095;22350;-79
2021/08/14 06:21:16;;;;;;;;;;;;;;;26.12;53.01;100749.41;128725;1095;22369;-79
2021/08/14 06:23:46;;;;;;;21.63;15.28;;;;;;;26.23;52.58;100751.92;128797;1095;21267;-80
2021/08/14 06:26:15;;;;;;;15.50;13.90;;;;;;;26.41;51.94;100752.55;128401;1095;22344;-79
2021/08/14 06:28:45;;;;;;;14.98;13.68;;;;;;;26.58;51.34;100753.20;128692;1094;23299;-78
2021/08/14 06:31:16;;;;;;;20.70;14.45;;;;;;;26.79;50.62;100755.98;128728;1093;22366;-79
2021/08/14 06:33:46;;;;;;;14.93;13.45;;;;;;;26.87;49.80;100763.62;128626;1095;22645;-78
2021/08/14 06:36:15;;;;;;;19.38;15.85;;;;;;;26.98;49.38;100762.55;128686;1094;23293;-80
2021/08/14 06:38:45;;;;;;;17.33;15.33;;;;;;;27.11;48.80;100767.47;128421;1094;22661;-80
2021/08/14 06:41:15;;;;;;;19.38;14.68;;;;;;;27.15;48.21;100765.88;128742;1095;22809;-79
2021/08/14 06:43:45;;;;;;;16.03;14.55;;;;;;;27.12;47.87;100771.80;128693;1093;22366;-79
2021/08/14 06:46:14;;;;;;;17.40;15.60;;;;;;;26.96;47.86;100768.26;128707;1093;24492;-80
2021/08/14 06:48:44;;;;;;;15.50;14.10;;;;;;;26.83;48.34;100776.08;128711;1093;22351;-79
2021/08/14 06:51:14;;;;;;;15.15;13.73;;;;;;;26.85;48.41;100769.28;128680;1095;22358;-79
2021/08/14 06:53:44;;;;;;;14.65;13.25;;;;;;;26.96;48.05;100776.39;128402;1095;23122;-79
2021/08/14 06:56:13;;;;;;;15.45;13.98;;;;;;;27.11;47.72;100781.03;128428;1095;22365;-79
2021/08/14 06:58:43;;;;;;;15.30;13.90;;;;;;;27.33;47.41;100782.75;128672;1095;24064;-79
2021/08/14 07:01:12;;;;;;;16.13;14.43;;;;;;;27.48;46.65;100796.31;128667;1095;24513;-79
2021/08/14 07:03:42;;;;;;;17.95;16.00;;;;;;;27.54;46.07;100795.23;128695;1095;22372;-78
2021/08/14 07:06:19;;;;;;;17.23;15.28;;;;;;;27.62;46.20;100792.00;128650;1095;24508;-80
2021/08/14 07:08:49;;;;;;;15.90;14.28;;;;;;;27.86;46.38;100792.30;128916;1095;22382;-80
2021/08/14 07:11:21;;;;;;;18.00;14.08;;;;;;;28.02;45.69;100803.13;128414;1095;22340;-79
2021/08/14 07:13:51;;;;;;;15.20;13.50;;;;;;;28.16;45.52;100809.66;128778;1093;24492;-78
2021/08/14 07:16:21;;;;;;;16.77;14.83;;;;;;;28.31;44.80;100808.80;128781;1095;22372;-78
2021/08/14 07:18:50;;;;;;;14.68;13.33;;;;;;;28.37;44.62;100813.14;128662;1095;24180;-78
2021/08/14 07:21:20;;;;;;;14.23;12.73;;;;;;;28.41;44.11;100808.80;128722;1095;25079;-78
2021/08/14 07:23:50;;;;;;;14.68;13.15;;;;;;;28.52;44.47;100818.55;128806;1095;22456;-78
2021/08/14 07:26:20;;;;;;;16.73;13.98;;;;;;;28.68;44.13;100823.95;128615;1095;22353;-79
2021/08/14 07:28:50;;;;;;;14.77;13.27;;;;;;;28.66;43.72;100818.80;128665;1095;23135;-78
2021/08/14 07:31:19;;;;;;;14.63;13.13;;;;;;;28.71;43.42;100812.52;128616;1095;24266;-78
2021/08/14 07:33:49;;;;;;;14.10;12.70;;;;;;;28.92;43.18;100815.95;128660;1095;22375;-78
2021/08/14 07:36:18;;;;;;;13.60;12.28;;;;;;;29.11;42.78;100822.43;128580;1095;23149;-78
2021/08/14 07:38:48;;;;;;;14.37;12.93;;;;;;;29.19;42.54;100815.58;128324;1095;22357;-78
2021/08/14 07:41:18;;;;;;;14.45;12.58;;;;;;;29.29;42.30;100815.52;128396;1093;22349;-77
2021/08/14 07:43:48;;;;;;;16.15;12.00;;;;;;;29.47;42.10;100830.39;128358;1094;22440;-77
2021/08/14 07:46:18;;;;;;;13.83;11.88;;;;;;;29.70;41.87;100832.42;128622;1095;22372;-78
2021/08/14 07:48:47;;;;;;;11.43;10.33;;;;;;;29.97;40.98;100822.95;128333;1095;24532;-78
2021/08/14 07:51:17;;;;;;;13.75;12.13;;;;;;;30.13;40.48;100820.91;128672;1095;22351;-78
2021/08/14 07:53:46;;;;;;;11.93;10.73;;;;;;;30.30;40.12;100825.94;128699;1093;22354;-78
2021/08/14 07:56:16;;;;;;;12.90;11.80;;;;;;;30.34;40.13;100822.34;128783;1095;22350;-78
2021/08/14 07:58:46;;;;;;;11.23;10.03;;;;;;;30.47;40.07;100824.38;128675;1095;22401;-79
2021/08/14 08:01:15;;;;;;;18.43;10.70;;;;;;;30.74;39.22;100827.63;128377;1093;22448;-79
2021/08/14 08:03:45;;;;;;;14.20;10.50;;;;;;;30.91;39.40;100827.98;128652;1095;22369;-78
2021/08/14 08:06:15;;;;;;;11.70;9.40;;;;;;;31.09;38.98;100832.66;128612;1095;24247;-79
2021/08/14 08:08:44;;;;;;;13.70;9.45;;;;;;;31.35;38.82;100835.86;128606;1095;22346;-79
2021/08/14 08:11:15;;;;;;;12.95;9.38;;;;;;;31.60;38.02;100840.14;128696;1095;24598;-79
2021/08/14 08:13:45;;;;;;;17.78;8.83;;;;;;;31.60;36.81;100829.21;128066;1098;22339;-78
2021/08/14 08:16:14;;;;;;;9.03;8.18;;;;;;;31.48;37.32;100838.95;128326;1096;22364;-79
2021/08/14 08:18:44;;;;;;;9.35;7.28;;;;;;;31.44;37.55;100846.13;128272;1098;24498;-79
2021/08/14 08:21:13;;;;;;;9.03;7.63;;;;;;;31.54;36.77;100843.23;128247;1098;22362;-78
2021/08/14 08:23:43;;;;;;;12.53;8.23;;;;;;;31.62;36.31;100848.02;128284;1098;22861;-78
2021/08/14 08:26:12;;;;;;;13.65;7.33;;;;;;;31.71;36.28;100854.44;128293;1098;22369;-79
2021/08/14 08:28:42;;;;;;;8.63;7.53;;;;;;;31.72;35.97;100847.86;128257;1098;22415;-79
2021/08/14 08:31:11;;;;;;;10.85;7.78;;;;;;;31.57;35.80;100853.58;128057;1095;22474;-78
2021/08/14 08:33:41;;;;;;;12.00;8.17;;;;;;;31.35;36.20;100857.69;128559;1095;24617;-79
2021/08/14 08:36:10;;;;;;;9.53;7.18;;;;;;;31.13;36.72;100855.53;128764;1094;23320;-79
2021/08/14 08:38:40;;;;;;;9.40;8.50;;;;;;;30.91;36.66;100845.16;128811;1095;22375;-81
2021/08/14 08:41:10;;;;;;;9.43;7.67;;;;;;;30.69;37.10;100848.41;128434;1095;24142;-77
2021/08/14 08:43:40;;;;;;;8.45;7.43;;;;;;;30.53;37.93;100851.59;128755;1095;22379;-77
2021/08/14 08:46:12;;;;;;;8.45;7.63;;;;;;;30.57;38.05;100847.99;128557;1095;22347;-77
2021/08/14 08:48:52;;;;;;;12.27;7.87;;;;;;;30.61;37.49;100848.22;128716;1093;22448;-75
2021/08/14 08:51:27;;;;;;;12.83;8.37;;;;;;;30.52;37.46;100845.31;128664;1095;22361;-75
2021/08/14 08:53:59;;;;;;;10.88;7.43;;;;;;;30.70;37.57;100843.77;128683;1095;22348;-77
2021/08/14 08:56:28;;;;;;;8.83;7.80;;;;;;;30.78;37.60;100843.14;128364;1095;22396;-80
2021/08/14 08:58:58;;;;;;;9.60;7.05;;;;;;;30.88;37.33;100836.75;128710;1095;22401;-82
2021/08/14 09:01:28;;;;;;;13.60;8.30;;;;;;;31.03;37.06;100839.30;128682;1095;22376;-81
2021/08/14 09:04:23;;;;;;;44.58;16.75;;;;;;;30.97;36.95;100835.00;128443;1095;22353;-82
2021/08/14 09:06:55;;;;;;;19.33;9.48;;;;;;;30.71;37.24;100837.20;128873;1093;23068;-81
2021/08/14 09:09:31;;;;;;;11.48;8.20;;;;;;;30.57;37.44;100844.45;128767;1095;22355;-81
2021/08/14 09:12:04;;;;;;;19.30;9.95;;;;;;;30.57;37.46;100833.55;128404;1095;22358;-83
2021/08/14 09:14:48;;;;;;;58.68;21.90;;;;;;;30.63;37.66;100835.93;128436;1095;22341;-82
2021/08/14 09:17:26;;;;;;;12.23;8.30;;;;;;;30.88;37.12;100829.38;128548;1095;22359;-79
2021/08/14 09:20:17;;;;;;;21.63;9.70;;;;;;;30.94;36.62;100838.31;128735;1093;22372;-76
2021/08/14 09:23:06;;;;;;;7.95;5.85;;;;;;;31.13;36.51;100846.53;128691;1095;22429;-77
2021/08/14 09:25:53;;;;;;;7.73;6.53;;;;;;;31.33;36.51;100843.55;128600;1093;22357;-77
2021/08/14 09:28:37;;;;;;;9.03;6.68;;;;;;;31.55;35.75;100839.39;128622;1095;22357;-77
2021/08/14 09:31:07;;;;;;;7.90;6.90;;;;;;;31.79;35.31;100842.02;128607;1095;24499;-77
2021/08/14 09:33:38;;;;;;;10.55;6.50;;;;;;;31.85;35.03;100849.02;128709;1095;22359;-78
2021/08/14 09:36:10;;;;;;;10.78;7.38;;;;;;;32.07;35.48;100851.15;128374;1095;24508;-76
2021/08/14 09:38:49;;;;;;;12.63;7.60;;;;;;;32.08;34.78;100860.96;128607;1095;22452;-76
2021/08/14 09:41:23;;;;;;;8.35;6.48;;;;;;;31.85;35.07;100854.48;128639;1094;24496;-77
2021/08/14 09:43:56;;;;;;;12.00;6.88;;;;;;;31.70;35.21;100863.75;128370;1095;22802;-76
2021/08/14 09:46:43;;;;;;;10.15;7.50;;;;;;;31.53;35.22;100864.28;128466;1095;22350;-77
2021/08/14 09:49:12;;;;;;;14.68;8.58;;;;;;;31.25;35.80;100863.27;128713;1095;24515;-77
2021/08/14 09:51:42;;;;;;;10.78;7.30;;;;;;;31.02;36.26;100853.21;128342;1095;22341;-76
2021/08/14 09:54:11;;;;;;;9.23;6.95;;;;;;;31.05;37.41;100853.44;128642;1095;22802;-77
2021/08/14 09:56:41;;;;;;;8.78;7.80;;;;;;;31.30;36.55;100856.94;128625;1095;22372;-77
2021/08/14 09:59:12;;;;;;;9.78;6.75;;;;;;;31.43;36.47;100849.97;128614;1095;22361;-77
2021/08/14 10:01:42;;;;;;;11.08;7.50;;;;;;;31.57;35.57;100851.65;128446;1095;22353;-76
2021/08/14 10:04:17;;;;;;;;;;;;;;;31.38;34.72;100850.84;128513;1095;22353;-76
2021/08/14 10:06:47;;;;;;;9.33;6.35;;;;;;;31.29;35.55;100847.95;128419;1095;21340;-77
2021/08/14 10:09:17;;;;;;;14.57;6.60;;;;;;;31.29;35.43;100853.41;128744;1095;22368;-77
2021/08/14 10:11:47;;;;;;;15.28;6.83;;;;;;;31.41;35.27;100845.59;128404;1095;25204;-77
2021/08/14 10:14:20;;;;;;;11.58;6.58;;;;;;;31.39;34.61;100836.11;128672;1095;22357;-77
2021/08/14 10:16:50;;;;;;;10.88;6.58;;;;;;;31.45;34.95;100847.73;128604;1095;25021;-77
2021/08/14 10:19:21;;;;;;;20.13;7.28;;;;;;;31.65;34.87;100842.77;128600;1095;22372;-77
2021/08/14 10:21:57;;;;;;;;;;;;;;;31.83;34.93;100835.67;128544;1095;22363;-78
2021/08/14 10:24:35;;;;;;;8.75;6.10;;;;;;;31.79;34.63;100840.12;128624;1095;21258;-77
2021/08/14 10:27:16;;;;;;;8.00;6.63;;;;;;;31.43;34.95;100839.05;128623;1095;22356;-76
2021/08/14 10:30:00;;;;;;;8.15;7.25;;;;;;;31.20;35.18;100832.52;128643;1095;22359;-77
2021/08/14 10:32:50;;;;;;;9.85;5.45;;;;;;;31.35;35.20;100824.94;128682;1095;22365;-77
2021/08/14 10:35:20;;;;;;;8.00;5.73;;;;;;;31.39;35.00;100823.27;128260;1098;22355;-76
2021/08/14 10:37:51;;;;;;;7.07;5.80;;;;;;;31.16;34.75;100819.47;128268;1098;22388;-77
2021/08/14 10:40:21;;;;;;;11.35;6.30;;;;;;;30.89;35.08;100819.27;128244;1098;22371;-77
2021/08/14 10:42:53;;;;;;;14.08;6.70;;;;;;;30.81;35.03;100814.48;128286;1098;22307;-76
2021/08/14 10:45:37;;;;;;;10.57;6.03;;;;;;;30.68;35.08;100813.23;128229;1098;22389;-76
2021/08/14 10:48:08;;;;;;;7.33;6.50;;;;;;;30.49;35.22;100802.30;128249;1097;22684;-77
2021/08/14 10:51:01;;;;;;;11.38;6.28;;;;;;;30.20;35.81;100802.33;128285;1098;22611;-77
2021/08/14 10:53:43;;;;;;;9.55;6.98;;;;;;;30.03;36.69;100794.56;128009;1101;22375;-79
2021/08/14 10:56:52;;;;;;;14.15;7.80;;;;;;;29.86;37.19;100797.72;127983;1101;22410;-78
2021/08/14 10:59:39;;;;;;;10.08;7.78;;;;;;;29.54;37.55;100798.21;127948;1100;22380;-78
2021/08/14 11:02:12;;;;;;;9.48;6.73;;;;;;;29.35;37.50;100800.78;127978;1100;22371;-78
2021/08/14 11:04:49;;;;;;;10.63;7.98;;;;;;;29.18;38.17;100784.84;127982;1101;22395;-78
2021/08/14 11:07:41;;;;;;;18.65;8.53;;;;;;;29.11;38.58;100786.26;127971;1101;24540;-78
2021/08/14 11:10:13;;;;;;;7.88;6.53;;;;;;;28.96;38.82;100781.70;127042;1105;24260;-79
2021/08/14 11:12:48;;;;;;;11.33;7.68;;;;;;;28.93;39.08;100784.98;127131;1105;22408;-79
2021/08/14 11:15:24;;;;;;;9.88;6.98;;;;;;;28.90;38.81;100794.50;127643;1105;24231;-77
2021/08/14 11:18:00;;;;;;;9.05;5.40;;;;;;;28.85;38.49;100787.16;127577;1104;22391;-78
2021/08/14 11:20:39;;;;;;;6.03;5.17;;;;;;;28.84;38.01;100779.30;127057;1103;23251;-79
2021/08/14 11:23:29;;;;;;;6.17;5.47;;;;;;;28.72;37.63;100782.33;127087;1105;24563;-77